Time;durP1;ratioP1;P1;durP2;ratioP2;P2;SDS_P1;SDS_P2;PMS_P1;PMS_P2;Temp;Humidity;BMP_temperature;BMP_pressure;BME280_temperature;BME280_humidity;BME280_pressure;Samples;Min_cycle;Max_cycle;Signal;HPM_P1;HPM_P2
2022/09/15 00:02:39;;;;;;;3.23;2.77;;;;;;;;;;5043042;28;20594;-64
2022/09/15 00:05:14;;;;;;;3.87;3.03;;;;;;;;;;5047268;28;20301;-64
2022/09/15 00:07:49;;;;;;;2.90;2.70;;;;;;;;;;5063043;28;20206;-64
2022/09/15 00:10:18;;;;;;;5.03;3.17;;;;;;;;;;5053906;28;20210;-64
2022/09/15 00:12:48;;;;;;;4.73;3.00;;;;;;;;;;5064759;28;20202;-65
2022/09/15 00:15:20;;;;;;;5.43;3.33;;;;;;;;;;5073185;28;20213;-65
2022/09/15 00:17:53;;;;;;;4.07;2.87;;;;;;;;;;5067541;28;20678;-64
2022/09/15 00:20:24;;;;;;;3.20;2.90;;;;;;;;;;5084826;28;20189;-64
2022/09/15 00:22:54;;;;;;;2.90;2.60;;;;;;;;;;5083782;28;20881;-64
2022/09/15 00:25:24;;;;;;;3.50;3.20;;;;;;;;;;5088338;28;20264;-64
2022/09/15 00:27:57;;;;;;;4.70;3.43;;;;;;;;;;5065780;28;20210;-64
2022/09/15 00:30:26;;;;;;;6.07;3.20;;;;;;;;;;5070613;28;20194;-65
2022/09/15 00:32:57;;;;;;;3.87;2.80;;;;;;;;;;5068674;28;20221;-64
2022/09/15 00:35:29;;;;;;;3.37;2.90;;;;;;;;;;5074244;28;20217;-64
2022/09/15 00:37:59;;;;;;;6.40;3.20;;;;;;;;;;5067540;28;20776;-65
2022/09/15 00:40:27;;;;;;;6.07;3.60;;;;;;;;;;5072713;28;20296;-65
2022/09/15 00:42:59;;;;;;;3.30;2.90;;;;;;;;;;5068406;28;20202;-65
2022/09/15 00:45:31;;;;;;;4.47;3.27;;;;;;;;;;5066869;28;20292;-65
2022/09/15 00:48:05;;;;;;;3.50;3.17;;;;;;;;;;5050845;28;20537;-65
2022/09/15 00:50:37;;;;;;;3.67;3.17;;;;;;;;;;5056928;28;20193;-64
2022/09/15 00:53:09;;;;;;;4.60;3.10;;;;;;;;;;5068654;28;20775;-65
2022/09/15 00:55:46;;;;;;;4.73;3.43;;;;;;;;;;5068134;28;20209;-64
2022/09/15 00:58:35;;;;;;;4.50;3.23;;;;;;;;;;5065844;28;20196;-65
2022/09/15 01:01:09;;;;;;;4.90;2.97;;;;;;;;;;5071710;28;20210;-65
2022/09/15 01:03:38;;;;;;;4.10;3.33;;;;;;;;;;5056345;28;20206;-65
2022/09/15 01:06:17;;;;;;;5.17;3.40;;;;;;;;;;5053945;28;20196;-65
2022/09/15 01:08:58;;;;;;;5.37;3.00;;;;;;;;;;5086754;28;20197;-65
2022/09/15 01:11:29;;;;;;;3.93;3.30;;;;;;;;;;5069093;28;20194;-65
2022/09/15 01:14:07;;;;;;;4.33;3.00;;;;;;;;;;5082788;28;20203;-64
2022/09/15 01:16:56;;;;;;;4.20;2.97;;;;;;;;;;5055722;28;20229;-65
2022/09/15 01:19:46;;;;;;;4.27;2.93;;;;;;;;;;5068293;28;20219;-65
2022/09/15 01:22:36;;;;;;;4.37;3.00;;;;;;;;;;5069393;28;20273;-65
2022/09/15 01:25:16;;;;;;;3.37;2.90;;;;;;;;;;5078133;28;20193;-65
2022/09/15 01:28:17;;;;;;;4.10;2.93;;;;;;;;;;5064795;28;20209;-65
2022/09/15 01:30:56;;;;;;;3.83;2.70;;;;;;;;;;5046333;28;20209;-64
2022/09/15 01:33:46;;;;;;;4.63;2.90;;;;;;;;;;5051174;28;20205;-65
2022/09/15 01:36:39;;;;;;;4.27;3.23;;;;;;;;;;5069650;28;20186;-65
2022/09/15 01:39:23;;;;;;;3.37;2.70;;;;;;;;;;5072764;28;20271;-65
2022/09/15 01:42:03;;;;;;;4.67;2.93;;;;;;;;;;5055199;28;20282;-64
2022/09/15 01:44:40;;;;;;;4.00;2.73;;;;;;;;;;5064370;28;20193;-65
2022/09/15 01:47:12;;;;;;;3.80;2.70;;;;;;;;;;5051920;28;20201;-65
2022/09/15 01:49:59;;;;;;;5.47;3.27;;;;;;;;;;5050647;28;20292;-65
2022/09/15 01:52:31;;;;;;;4.43;3.10;;;;;;;;;;5066165;28;20293;-64
2022/09/15 01:55:05;;;;;;;3.93;2.73;;;;;;;;;;5034869;28;20659;-65
2022/09/15 01:57:37;;;;;;;3.83;2.93;;;;;;;;;;5067530;28;20269;-65
2022/09/15 02:00:08;;;;;;;4.40;2.97;;;;;;;;;;5085785;28;20286;-65
2022/09/15 02:02:51;;;;;;;3.87;2.80;;;;;;;;;;5067924;28;20194;-64
2022/09/15 02:05:39;;;;;;;3.30;2.63;;;;;;;;;;5072677;28;20189;-65
2022/09/15 02:08:33;;;;;;;3.20;2.77;;;;;;;;;;5072094;28;20202;-64
2022/09/15 02:11:31;;;;;;;5.97;3.10;;;;;;;;;;5070173;28;20189;-64
2022/09/15 02:14:41;;;;;;;3.13;2.60;;;;;;;;;;5060251;28;20208;-65
2022/09/15 02:17:19;;;;;;;3.77;2.80;;;;;;;;;;5004725;28;20215;-65
2022/09/15 02:19:56;;;;;;;3.03;2.67;;;;;;;;;;5004930;28;20195;-65
2022/09/15 02:22:28;;;;;;;4.50;3.00;;;;;;;;;;5004001;28;20532;-64
2022/09/15 02:25:05;;;;;;;3.43;2.97;;;;;;;;;;5020013;28;20280;-65
2022/09/15 02:27:36;;;;;;;5.23;2.80;;;;;;;;;;5063903;28;20650;-64
2022/09/15 02:30:13;;;;;;;3.53;3.10;;;;;;;;;;5067406;28;20189;-65
2022/09/15 02:32:57;;;;;;;3.30;2.93;;;;;;;;;;5055224;28;20387;-65
2022/09/15 02:35:27;;;;;;;4.07;3.47;;;;;;;;;;5066359;28;20237;-65
2022/09/15 02:37:59;;;;;;;5.93;3.50;;;;;;;;;;5070625;28;20213;-65
2022/09/15 02:40:31;;;;;;;5.03;3.33;;;;;;;;;;5062824;28;20221;-64
2022/09/15 02:43:04;;;;;;;5.30;3.40;;;;;;;;;;5076878;28;20197;-65
2022/09/15 02:45:45;;;;;;;3.77;3.37;;;;;;;;;;5082439;28;20274;-65
2022/09/15 02:48:15;;;;;;;3.77;3.03;;;;;;;;;;5066749;28;20194;-65
2022/09/15 02:50:46;;;;;;;5.63;3.47;;;;;;;;;;5078799;28;20665;-65
2022/09/15 02:53:17;;;;;;;5.77;3.23;;;;;;;;;;5071593;28;20243;-65
2022/09/15 02:55:50;;;;;;;4.17;3.67;;;;;;;;;;5070068;28;20201;-64
2022/09/15 02:58:21;;;;;;;6.50;3.80;;;;;;;;;;5077750;28;20681;-65
2022/09/15 03:00:55;;;;;;;3.93;3.30;;;;;;;;;;5053608;28;21061;-65
2022/09/15 03:03:29;;;;;;;5.63;3.50;;;;;;;;;;5068442;28;20268;-64
2022/09/15 03:06:21;;;;;;;4.73;3.43;;;;;;;;;;5079916;28;20189;-65
2022/09/15 03:08:49;;;;;;;5.10;3.33;;;;;;;;;;5045233;28;20205;-65
2022/09/15 03:11:19;;;;;;;5.10;3.50;;;;;;;;;;5072118;28;20251;-64
2022/09/15 03:13:56;;;;;;;4.33;3.63;;;;;;;;;;5071670;28;20611;-65
2022/09/15 03:16:26;;;;;;;4.17;3.70;;;;;;;;;;5067215;28;20225;-65
2022/09/15 03:18:58;;;;;;;4.43;3.33;;;;;;;;;;5072725;28;20610;-65
2022/09/15 03:21:34;;;;;;;4.60;3.37;;;;;;;;;;5073006;28;20189;-64
2022/09/15 03:24:14;;;;;;;3.93;3.10;;;;;;;;;;5073879;28;20281;-64
2022/09/15 03:26:50;;;;;;;4.13;3.57;;;;;;;;;;5072928;28;23516;-64
2022/09/15 03:29:23;;;;;;;4.00;3.33;;;;;;;;;;5071379;28;20209;-65
2022/09/15 03:31:55;;;;;;;4.53;3.20;;;;;;;;;;5072210;28;20197;-64
2022/09/15 03:34:26;;;;;;;3.93;3.33;;;;;;;;;;5070654;28;20190;-64
2022/09/15 03:36:56;;;;;;;4.30;3.47;;;;;;;;;;5080066;28;20311;-65
2022/09/15 03:39:28;;;;;;;6.20;3.67;;;;;;;;;;5057711;28;20236;-65
2022/09/15 03:41:56;;;;;;;3.80;3.40;;;;;;;;;;5075821;28;20193;-65
2022/09/15 03:44:29;;;;;;;4.80;3.43;;;;;;;;;;5069723;28;20195;-64
2022/09/15 03:47:01;;;;;;;4.17;3.20;;;;;;;;;;5073416;28;20193;-65
2022/09/15 03:49:31;;;;;;;3.70;3.33;;;;;;;;;;5085880;28;20186;-64
2022/09/15 03:52:00;;;;;;;3.73;3.23;;;;;;;;;;5067297;28;20233;-65
2022/09/15 03:54:29;;;;;;;5.77;3.60;;;;;;;;;;5067693;28;20255;-65
2022/09/15 03:56:57;;;;;;;4.10;3.23;;;;;;;;;;5070337;28;20213;-65
2022/09/15 03:59:28;;;;;;;6.87;3.83;;;;;;;;;;5080452;28;20263;-65
2022/09/15 04:02:04;;;;;;;3.80;3.37;;;;;;;;;;5075104;28;20212;-64
2022/09/15 04:04:38;;;;;;;7.07;3.30;;;;;;;;;;5063610;28;20197;-65
2022/09/15 04:07:08;;;;;;;6.40;3.37;;;;;;;;;;5075412;28;20200;-65
2022/09/15 04:09:49;;;;;;;5.43;2.93;;;;;;;;;;5051622;28;20217;-65
2022/09/15 04:12:20;;;;;;;4.97;3.10;;;;;;;;;;5070005;28;20222;-66
2022/09/15 04:14:50;;;;;;;3.63;3.30;;;;;;;;;;5062891;28;20255;-64
2022/09/15 04:17:23;;;;;;;3.43;3.10;;;;;;;;;;5053146;28;20283;-65
2022/09/15 04:19:53;;;;;;;4.93;3.20;;;;;;;;;;5088450;28;20193;-64
2022/09/15 04:22:23;;;;;;;5.10;3.13;;;;;;;;;;5070549;28;20231;-64
2022/09/15 04:24:54;;;;;;;4.30;2.90;;;;;;;;;;5066796;28;20194;-64
2022/09/15 04:27:24;;;;;;;4.67;3.40;;;;;;;;;;5069989;28;20278;-64
2022/09/15 04:29:54;;;;;;;4.10;3.27;;;;;;;;;;5069974;28;20716;-64
2022/09/15 04:32:29;;;;;;;3.87;3.20;;;;;;;;;;5082835;28;20201;-64
2022/09/15 04:34:59;;;;;;;3.83;3.17;;;;;;;;;;5070970;28;20197;-64
2022/09/15 04:37:32;;;;;;;3.63;3.30;;;;;;;;;;5053469;28;20234;-65
2022/09/15 04:40:03;;;;;;;3.20;2.90;;;;;;;;;;5057862;28;20237;-64
2022/09/15 04:42:33;;;;;;;4.23;3.03;;;;;;;;;;5053785;28;20233;-65
2022/09/15 04:45:01;;;;;;;4.80;3.30;;;;;;;;;;5056878;28;20670;-66
2022/09/15 04:47:38;;;;;;;3.10;2.80;;;;;;;;;;5059654;28;20818;-67
2022/09/15 04:50:08;;;;;;;3.83;2.50;;;;;;;;;;5064795;28;20190;-66
2022/09/15 04:52:38;;;;;;;2.80;2.50;;;;;;;;;;5067911;28;20215;-66
2022/09/15 04:55:07;;;;;;;3.47;2.40;;;;;;;;;;5047577;28;20619;-66
2022/09/15 04:57:41;;;;;;;3.93;2.27;;;;;;;;;;5061908;28;20669;-67
2022/09/15 05:00:26;;;;;;;2.53;2.33;;;;;;;;;;5055219;28;20234;-65
2022/09/15 05:02:55;;;;;;;2.40;2.20;;;;;;;;;;5050721;28;20222;-66
2022/09/15 05:05:27;;;;;;;4.50;2.67;;;;;;;;;;5048969;28;20206;-66
2022/09/15 05:07:59;;;;;;;5.67;3.23;;;;;;;;;;5036056;28;20225;-68
2022/09/15 05:10:30;;;;;;;5.43;2.40;;;;;;;;;;5047798;28;20203;-67
2022/09/15 05:13:00;;;;;;;5.40;2.73;;;;;;;;;;5051124;28;20553;-67
2022/09/15 05:15:32;;;;;;;4.33;2.70;;;;;;;;;;5045097;28;20225;-67
2022/09/15 05:18:04;;;;;;;5.37;3.20;;;;;;;;;;5048544;28;20228;-65
2022/09/15 05:20:41;;;;;;;6.33;3.30;;;;;;;;;;5055167;28;20190;-64
2022/09/15 05:23:19;;;;;;;5.17;3.57;;;;;;;;;;5047512;28;20194;-63
2022/09/15 05:26:03;;;;;;;6.27;3.20;;;;;;;;;;5047327;28;20813;-64
2022/09/15 05:28:40;;;;;;;5.93;3.97;;;;;;;;;;5055323;28;20229;-65
2022/09/15 05:31:17;;;;;;;4.60;3.70;;;;;;;;;;5055032;28;20202;-64
2022/09/15 05:33:48;;;;;;;8.27;4.07;;;;;;;;;;5070881;28;20559;-64
2022/09/15 05:36:26;;;;;;;5.30;4.00;;;;;;;;;;5045332;28;20210;-64
2022/09/15 05:39:01;;;;;;;4.30;3.90;;;;;;;;;;5034774;28;20234;-64
2022/09/15 05:41:34;;;;;;;5.47;3.90;;;;;;;;;;5047484;28;20256;-65
2022/09/15 05:44:20;;;;;;;5.40;4.30;;;;;;;;;;5047340;28;20833;-65
2022/09/15 05:46:51;;;;;;;7.20;4.47;;;;;;;;;;5029543;28;20871;-64
2022/09/15 05:49:19;;;;;;;6.00;3.73;;;;;;;;;;5044482;28;20256;-64
2022/09/15 05:51:59;;;;;;;5.60;3.83;;;;;;;;;;5034312;28;20548;-65
2022/09/15 05:54:29;;;;;;;5.50;4.40;;;;;;;;;;5054492;28;20195;-65
2022/09/15 05:56:59;;;;;;;5.20;3.83;;;;;;;;;;5046749;28;20206;-64
2022/09/15 05:59:30;;;;;;;7.07;4.20;;;;;;;;;;5050263;28;20238;-64
2022/09/15 06:02:05;;;;;;;4.50;3.43;;;;;;;;;;5047333;28;20186;-65
2022/09/15 06:04:36;;;;;;;5.73;3.90;;;;;;;;;;5052445;28;20206;-65
2022/09/15 06:07:06;;;;;;;6.00;3.93;;;;;;;;;;5058916;28;20218;-65
2022/09/15 06:09:41;;;;;;;5.70;3.67;;;;;;;;;;5050239;28;20190;-65
2022/09/15 06:12:17;;;;;;;5.00;3.70;;;;;;;;;;5045044;28;20519;-65
2022/09/15 06:14:54;;;;;;;4.97;3.70;;;;;;;;;;5042255;28;20305;-66
2022/09/15 06:17:23;;;;;;;4.00;3.50;;;;;;;;;;5046979;28;20273;-64
2022/09/15 06:19:55;;;;;;;4.63;3.30;;;;;;;;;;5041780;28;20191;-65
2022/09/15 06:22:34;;;;;;;4.83;3.93;;;;;;;;;;5055587;28;20220;-63
2022/09/15 06:25:05;;;;;;;5.50;3.33;;;;;;;;;;5053767;28;20248;-65
2022/09/15 06:27:41;;;;;;;4.93;3.77;;;;;;;;;;5043352;28;20234;-65
2022/09/15 06:30:16;;;;;;;3.67;3.37;;;;;;;;;;5053217;28;20198;-65
2022/09/15 06:32:52;;;;;;;4.37;3.80;;;;;;;;;;5031901;28;20193;-65
2022/09/15 06:35:20;;;;;;;3.20;2.87;;;;;;;;;;5050653;28;20226;-65
2022/09/15 06:37:51;;;;;;;17.67;5.40;;;;;;;;;;5047600;28;20255;-69
2022/09/15 06:40:24;;;;;;;33.03;7.60;;;;;;;;;;5039962;28;20203;-70
2022/09/15 06:43:08;;;;;;;42.90;10.30;;;;;;;;;;5033771;28;20222;-71
2022/09/15 06:45:41;;;;;;;29.77;8.83;;;;;;;;;;5045560;28;20191;-71
2022/09/15 06:48:25;;;;;;;33.67;8.67;;;;;;;;;;5041255;28;20309;-70
2022/09/15 06:50:57;;;;;;;20.30;8.83;;;;;;;;;;5015660;28;20224;-69
2022/09/15 06:53:31;;;;;;;18.17;7.07;;;;;;;;;;5044754;28;20255;-68
2022/09/15 06:56:22;;;;;;;20.73;6.73;;;;;;;;;;5022510;28;20252;-68
2022/09/15 06:58:55;;;;;;;16.63;6.37;;;;;;;;;;5041174;28;20548;-71
2022/09/15 07:01:30;;;;;;;15.70;6.40;;;;;;;;;;5046157;28;20875;-68
2022/09/15 07:04:01;;;;;;;8.97;5.03;;;;;;;;;;5046629;28;20551;-67
2022/09/15 07:06:37;;;;;;;8.10;4.43;;;;;;;;;;5041875;28;20183;-68
2022/09/15 07:09:10;;;;;;;10.23;3.97;;;;;;;;;;5047527;28;20233;-69
2022/09/15 07:11:40;;;;;;;6.57;4.10;;;;;;;;;;5051186;28;20199;-73
2022/09/15 07:14:13;;;;;;;6.90;3.87;;;;;;;;;;5046995;28;20209;-73
2022/09/15 07:16:45;;;;;;;7.20;3.80;;;;;;;;;;5053197;28;20538;-72
2022/09/15 07:19:17;;;;;;;7.60;3.53;;;;;;;;;;5047077;28;20214;-69
2022/09/15 07:21:49;;;;;;;5.13;3.80;;;;;;;;;;5043823;28;20210;-72
2022/09/15 07:24:21;;;;;;;5.23;3.43;;;;;;;;;;5028031;28;20286;-69
2022/09/15 07:26:54;;;;;;;4.77;3.60;;;;;;;;;;5022763;28;20267;-69
2022/09/15 07:29:27;;;;;;;5.67;2.97;;;;;;;;;;5048950;28;20203;-70
2022/09/15 07:32:04;;;;;;;5.03;3.07;;;;;;;;;;5048843;28;20546;-71
2022/09/15 07:34:37;;;;;;;4.87;3.43;;;;;;;;;;5044656;28;20205;-69
2022/09/15 07:37:10;;;;;;;5.20;2.77;;;;;;;;;;5026472;28;20659;-69
2022/09/15 07:39:39;;;;;;;4.70;2.53;;;;;;;;;;5042556;28;20454;-69
2022/09/15 07:42:06;;;;;;;4.30;2.80;;;;;;;;;;5061470;28;20190;-69
2022/09/15 07:44:34;;;;;;;3.33;2.57;;;;;;;;;;5048658;28;20627;-71
2022/09/15 07:47:04;;;;;;;3.80;2.50;;;;;;;;;;5025688;28;20224;-69
2022/09/15 07:49:35;;;;;;;5.30;2.77;;;;;;;;;;5060086;28;20199;-69
2022/09/15 07:52:04;;;;;;;4.23;2.80;;;;;;;;;;5045594;28;20272;-70
2022/09/15 07:54:36;;;;;;;5.40;2.63;;;;;;;;;;5052607;28;20189;-71
2022/09/15 07:57:07;;;;;;;6.37;2.60;;;;;;;;;;5033295;28;20627;-71
2022/09/15 07:59:43;;;;;;;4.17;2.47;;;;;;;;;;5055991;28;20241;-72
2022/09/15 08:02:20;;;;;;;2.60;2.10;;;;;;;;;;5029163;28;20197;-73
2022/09/15 08:04:56;;;;;;;4.63;2.50;;;;;;;;;;5034159;28;20206;-71
2022/09/15 08:07:31;;;;;;;3.37;2.33;;;;;;;;;;5053520;28;20501;-69
2022/09/15 08:10:04;;;;;;;4.00;2.50;;;;;;;;;;5048494;28;20201;-70
2022/09/15 08:12:35;;;;;;;4.03;2.90;;;;;;;;;;5047238;28;20202;-71
2022/09/15 08:15:11;;;;;;;4.67;2.97;;;;;;;;;;5052080;28;20213;-69
2022/09/15 08:17:43;;;;;;;4.40;2.80;;;;;;;;;;5042790;28;20258;-68
2022/09/15 08:20:16;;;;;;;5.60;2.60;;;;;;;;;;5048862;28;20199;-70
2022/09/15 08:22:53;;;;;;;3.87;2.77;;;;;;;;;;5046095;28;20205;-71
2022/09/15 08:25:25;;;;;;;3.67;3.03;;;;;;;;;;5051403;28;20191;-69
2022/09/15 08:27:55;;;;;;;3.57;2.83;;;;;;;;;;5025559;28;20210;-69
2022/09/15 08:30:27;;;;;;;5.93;3.10;;;;;;;;;;5075127;28;20198;-67
2022/09/15 08:32:54;;;;;;;3.43;2.93;;;;;;;;;;5032901;28;20191;-68
2022/09/15 08:35:25;;;;;;;5.77;3.00;;;;;;;;;;5037314;28;20202;-70
2022/09/15 08:37:56;;;;;;;4.83;3.10;;;;;;;;;;5062938;28;20647;-71
2022/09/15 08:40:31;;;;;;;4.70;2.53;;;;;;;;;;5051191;28;20211;-70
2022/09/15 08:43:08;;;;;;;5.40;2.40;;;;;;;;;;5054631;28;20209;-71
2022/09/15 08:45:48;;;;;;;4.30;2.60;;;;;;;;;;5052231;28;20191;-73
2022/09/15 08:48:23;;;;;;;5.00;2.00;;;;;;;;;;5043919;28;20203;-70
2022/09/15 08:50:55;;;;;;;6.90;2.17;;;;;;;;;;5042253;28;20218;-67
2022/09/15 08:53:38;;;;;;;3.80;2.27;;;;;;;;;;5047880;28;20194;-68
2022/09/15 08:56:21;;;;;;;4.10;1.97;;;;;;;;;;5061209;28;20301;-69
2022/09/15 08:58:52;;;;;;;3.60;2.13;;;;;;;;;;5053309;28;20206;-68
2022/09/15 09:01:40;;;;;;;3.63;2.40;;;;;;;;;;5031406;28;20217;-66
2022/09/15 09:04:20;;;;;;;3.03;1.90;;;;;;;;;;5046502;28;20213;-68
2022/09/15 09:07:15;;;;;;;5.20;2.13;;;;;;;;;;5052414;28;20201;-66
2022/09/15 09:10:07;;;;;;;3.77;2.13;;;;;;;;;;5047202;28;20206;-66
2022/09/15 09:13:08;;;;;;;6.03;2.10;;;;;;;;;;5030486;28;20213;-68
2022/09/15 09:15:46;;;;;;;3.70;2.27;;;;;;;;;;4981766;28;20211;-67
2022/09/15 09:18:24;;;;;;;4.80;2.33;;;;;;;;;;4966987;28;20310;-70
2022/09/15 09:21:13;;;;;;;3.73;1.70;;;;;;;;;;5040089;28;20832;-67
2022/09/15 09:24:02;;;;;;;4.47;2.30;;;;;;;;;;5042363;28;20534;-70
2022/09/15 09:26:40;;;;;;;6.50;2.33;;;;;;;;;;5054612;28;20256;-69
2022/09/15 09:29:20;;;;;;;4.00;2.07;;;;;;;;;;5043290;28;20256;-71
2022/09/15 09:31:50;;;;;;;8.70;2.37;;;;;;;;;;5071345;28;20298;-72
2022/09/15 09:34:53;;;;;;;3.77;1.80;;;;;;;;;;5046195;28;20230;-71
2022/09/15 09:37:26;;;;;;;4.40;2.00;;;;;;;;;;5066666;28;21000;-69
2022/09/15 09:39:57;;;;;;;3.87;1.70;;;;;;;;;;5058131;28;20233;-70
2022/09/15 09:42:31;;;;;;;8.87;2.27;;;;;;;;;;5052376;28;20789;-70
2022/09/15 09:45:12;;;;;;;3.37;1.83;;;;;;;;;;5051158;28;20670;-69
2022/09/15 09:47:49;;;;;;;4.67;2.13;;;;;;;;;;5052336;28;20259;-70
2022/09/15 09:50:42;;;;;;;5.10;1.93;;;;;;;;;;5050896;28;20218;-68
2022/09/15 09:53:19;;;;;;;3.53;1.60;;;;;;;;;;5048384;28;20202;-70
2022/09/15 09:55:49;;;;;;;3.53;1.60;;;;;;;;;;5021867;28;20198;-68
2022/09/15 09:58:21;;;;;;;6.20;2.00;;;;;;;;;;5054245;28;20724;-72
2022/09/15 10:00:51;;;;;;;3.90;1.77;;;;;;;;;;5032387;28;21033;-70
2022/09/15 10:03:26;;;;;;;1.97;1.40;;;;;;;;;;5029347;28;20202;-73
2022/09/15 10:06:04;;;;;;;5.37;1.63;;;;;;;;;;5038108;28;20255;-67
2022/09/15 10:08:37;;;;;;;3.07;1.37;;;;;;;;;;5024862;28;20259;-68
2022/09/15 10:11:12;;;;;;;3.90;1.50;;;;;;;;;;5018567;28;20241;-65
2022/09/15 10:13:49;;;;;;;4.80;1.47;;;;;;;;;;5059363;28;20686;-65
2022/09/15 10:16:21;;;;;;;2.63;1.30;;;;;;;;;;5030871;28;20217;-65
2022/09/15 10:18:58;;;;;;;3.20;1.20;;;;;;;;;;5056281;28;20313;-68
2022/09/15 10:21:31;;;;;;;2.60;1.13;;;;;;;;;;5041610;28;20678;-64
2022/09/15 10:24:20;;;;;;;3.03;1.33;;;;;;;;;;5050958;28;20244;-64
2022/09/15 10:26:50;;;;;;;3.23;1.50;;;;;;;;;;5046747;28;20297;-64
2022/09/15 10:29:25;;;;;;;4.43;1.53;;;;;;;;;;5044951;28;20277;-64
2022/09/15 10:32:16;;;;;;;3.70;1.50;;;;;;;;;;5061499;28;20198;-64
2022/09/15 10:34:49;;;;;;;3.10;1.40;;;;;;;;;;5044537;28;20233;-64
2022/09/15 10:37:31;;;;;;;5.63;1.83;;;;;;;;;;5020002;28;20194;-65
2022/09/15 10:40:13;;;;;;;2.23;1.13;;;;;;;;;;5035017;28;20265;-65
2022/09/15 10:42:52;;;;;;;2.80;1.00;;;;;;;;;;5063173;28;20248;-64
2022/09/15 10:45:41;;;;;;;1.57;0.77;;;;;;;;;;5058392;28;20206;-64
2022/09/15 10:48:29;;;;;;;3.30;1.27;;;;;;;;;;5048861;28;20194;-64
2022/09/15 10:51:22;;;;;;;3.43;1.30;;;;;;;;;;5033836;28;20209;-66
2022/09/15 10:53:57;;;;;;;9.43;1.30;;;;;;;;;;5044368;28;20256;-71
2022/09/15 10:56:27;;;;;;;5.30;1.40;;;;;;;;;;5043586;28;20233;-71
2022/09/15 10:59:02;;;;;;;2.77;1.03;;;;;;;;;;5049052;28;20206;-71
2022/09/15 11:01:43;;;;;;;5.17;1.70;;;;;;;;;;5041560;28;20451;-72
2022/09/15 11:04:23;;;;;;;3.00;1.00;;;;;;;;;;5045696;28;20264;-70
2022/09/15 11:07:09;;;;;;;3.67;1.17;;;;;;;;;;5025108;28;20735;-73
2022/09/15 11:09:55;;;;;;;1.87;1.00;;;;;;;;;;5048204;28;20198;-70
2022/09/15 11:12:48;;;;;;;2.20;0.97;;;;;;;;;;5046810;28;20190;-71
2022/09/15 11:15:25;;;;;;;4.40;1.13;;;;;;;;;;5054766;28;20226;-69
2022/09/15 11:18:13;;;;;;;1.93;1.10;;;;;;;;;;5025038;28;20217;-68
2022/09/15 11:21:00;;;;;;;2.50;1.00;;;;;;;;;;5044214;28;20219;-70
2022/09/15 11:23:31;;;;;;;2.63;1.20;;;;;;;;;;5053583;28;20870;-70
2022/09/15 11:26:09;;;;;;;2.90;1.27;;;;;;;;;;5049756;28;20206;-71
2022/09/15 11:28:43;;;;;;;6.93;1.37;;;;;;;;;;5045701;28;20268;-71
2022/09/15 11:31:16;;;;;;;6.40;1.30;;;;;;;;;;5060059;28;20623;-71
2022/09/15 11:34:08;;;;;;;2.60;1.17;;;;;;;;;;5059683;28;20197;-72
2022/09/15 11:36:42;;;;;;;2.53;1.30;;;;;;;;;;5047931;28;20273;-73
2022/09/15 11:39:35;;;;;;;5.30;1.03;;;;;;;;;;5047766;28;20237;-74
2022/09/15 11:42:24;;;;;;;2.87;1.27;;;;;;;;;;5031115;28;20256;-71
2022/09/15 11:44:59;;;;;;;1.73;0.83;;;;;;;;;;5062345;28;20194;-69
2022/09/15 11:47:49;;;;;;;2.63;0.97;;;;;;;;;;5047735;28;20210;-67
2022/09/15 11:50:30;;;;;;;3.83;1.20;;;;;;;;;;5052140;28;20878;-68
2022/09/15 11:53:18;;;;;;;2.37;1.07;;;;;;;;;;5029629;28;20206;-70
2022/09/15 11:55:57;;;;;;;1.30;0.80;;;;;;;;;;5045732;28;20693;-67
2022/09/15 11:58:49;;;;;;;3.43;1.20;;;;;;;;;;5047211;28;20202;-71
2022/09/15 12:01:36;;;;;;;1.57;0.90;;;;;;;;;;5049250;28;20239;-68
2022/09/15 12:04:29;;;;;;;2.40;1.10;;;;;;;;;;5062334;28;20210;-70
2022/09/15 12:07:19;;;;;;;1.87;0.90;;;;;;;;;;5048472;28;20214;-70
2022/09/15 12:09:51;;;;;;;1.33;0.87;;;;;;;;;;5032743;28;20253;-70
2022/09/15 12:12:23;;;;;;;2.07;1.10;;;;;;;;;;5047120;28;20210;-65
2022/09/15 12:15:00;;;;;;;2.30;1.00;;;;;;;;;;5042297;28;20207;-65
2022/09/15 12:17:31;;;;;;;1.80;0.90;;;;;;;;;;5045352;28;20214;-66
2022/09/15 12:20:21;;;;;;;1.77;0.83;;;;;;;;;;5035252;28;20228;-66
2022/09/15 12:22:53;;;;;;;3.80;1.17;;;;;;;;;;5047601;28;20206;-65
2022/09/15 12:25:24;;;;;;;1.47;0.90;;;;;;;;;;5041560;28;20198;-64
2022/09/15 12:28:13;;;;;;;2.93;0.90;;;;;;;;;;5044986;28;20678;-66
2022/09/15 12:30:46;;;;;;;11.97;2.73;;;;;;;;;;5044191;28;20743;-66
2022/09/15 12:33:40;;;;;;;27.73;5.97;;;;;;;;;;5063155;28;20201;-70
2022/09/15 12:36:30;;;;;;;26.03;5.50;;;;;;;;;;5041713;28;20254;-67
2022/09/15 12:38:59;;;;;;;16.43;4.40;;;;;;;;;;5044919;28;20956;-67
2022/09/15 12:41:28;;;;;;;19.83;5.63;;;;;;;;;;5031258;28;20278;-66
2022/09/15 12:43:59;;;;;;;8.97;2.93;;;;;;;;;;5043511;28;20245;-67
2022/09/15 12:46:31;;;;;;;10.73;2.90;;;;;;;;;;5036937;28;20190;-65
2022/09/15 12:49:02;;;;;;;4.13;2.10;;;;;;;;;;5052578;28;20194;-65
2022/09/15 12:51:36;;;;;;;4.17;1.70;;;;;;;;;;5031217;28;20214;-66
2022/09/15 12:54:19;;;;;;;3.13;1.40;;;;;;;;;;5047684;28;20198;-65
2022/09/15 12:56:58;;;;;;;4.43;1.50;;;;;;;;;;5041733;28;20198;-65
2022/09/15 12:59:31;;;;;;;5.30;1.57;;;;;;;;;;5045488;28;20262;-65
2022/09/15 13:02:02;;;;;;;3.03;1.40;;;;;;;;;;5033972;28;20691;-65
2022/09/15 13:04:52;;;;;;;2.57;1.13;;;;;;;;;;5049890;28;20204;-65
2022/09/15 13:07:33;;;;;;;2.77;1.13;;;;;;;;;;5049364;28;20190;-65
2022/09/15 13:10:25;;;;;;;3.83;1.10;;;;;;;;;;5032682;28;20259;-65
2022/09/15 13:13:16;;;;;;;3.63;1.30;;;;;;;;;;5043946;28;20285;-65
2022/09/15 13:15:49;;;;;;;2.77;1.10;;;;;;;;;;5041523;28;20447;-64
2022/09/15 13:18:21;;;;;;;4.87;1.00;;;;;;;;;;5047591;28;20653;-63
2022/09/15 13:20:53;;;;;;;2.73;1.10;;;;;;;;;;5044682;28;20198;-62
2022/09/15 13:23:27;;;;;;;3.57;1.10;;;;;;;;;;5049511;28;20193;-61
2022/09/15 13:26:07;;;;;;;2.33;1.10;;;;;;;;;;5047599;28;20241;-62
2022/09/15 13:28:37;;;;;;;1.80;0.70;;;;;;;;;;5039119;28;20198;-62
2022/09/15 13:31:11;;;;;;;2.90;1.53;;;;;;;;;;5046432;28;20249;-62
2022/09/15 13:34:03;;;;;;;4.60;0.80;;;;;;;;;;5049555;28;20197;-62
2022/09/15 13:37:11;;;;;;;3.67;0.93;;;;;;;;;;5041401;28;20270;-62
2022/09/15 13:40:21;;;;;;;2.00;0.93;;;;;;;;;;5055101;28;20439;-62
2022/09/15 13:43:17;;;;;;;1.30;0.90;;;;;;;;;;5045361;28;20210;-62
2022/09/15 13:45:54;;;;;;;3.40;0.90;;;;;;;;;;5020045;28;20237;-62
2022/09/15 13:48:32;;;;;;;4.23;0.80;;;;;;;;;;5048618;28;20194;-62
2022/09/15 13:51:06;;;;;;;2.30;1.03;;;;;;;;;;5043302;28;20835;-62
2022/09/15 13:53:59;;;;;;;3.47;1.00;;;;;;;;;;5051498;28;20248;-62
2022/09/15 13:56:36;;;;;;;1.70;0.80;;;;;;;;;;5042123;28;20190;-61
2022/09/15 13:59:09;;;;;;;1.87;0.90;;;;;;;;;;5049708;28;20898;-61
2022/09/15 14:01:43;;;;;;;2.40;0.80;;;;;;;;;;5045518;28;20186;-62
2022/09/15 14:04:26;;;;;;;2.73;0.80;;;;;;;;;;5038169;28;20225;-62
2022/09/15 14:06:59;;;;;;;1.10;0.80;;;;;;;;;;5066774;28;20507;-62
2022/09/15 14:09:46;;;;;;;1.93;0.80;;;;;;;;;;5052842;28;20239;-62
2022/09/15 14:12:20;;;;;;;3.10;0.93;;;;;;;;;;5058249;28;20208;-61
2022/09/15 14:14:52;;;;;;;1.57;0.87;;;;;;;;;;5045216;28;20237;-62
2022/09/15 14:17:28;;;;;;;2.13;0.90;;;;;;;;;;5047483;28;20198;-63
2022/09/15 14:20:04;;;;;;;1.37;0.87;;;;;;;;;;5051823;28;20206;-63
2022/09/15 14:22:51;;;;;;;1.67;0.70;;;;;;;;;;5049130;28;20214;-63
2022/09/15 14:25:23;;;;;;;0.97;0.70;;;;;;;;;;5062459;28;20196;-63
2022/09/15 14:27:57;;;;;;;1.63;0.97;;;;;;;;;;5040157;28;20676;-62
2022/09/15 14:30:30;;;;;;;1.37;0.97;;;;;;;;;;5053453;28;20187;-62
2022/09/15 14:33:02;;;;;;;1.20;0.60;;;;;;;;;;5036313;28;20293;-63
2022/09/15 14:35:38;;;;;;;0.80;0.80;;;;;;;;;;5062661;28;20258;-62
2022/09/15 14:38:19;;;;;;;1.77;0.90;;;;;;;;;;5056731;28;20198;-63
2022/09/15 14:40:58;;;;;;;1.20;0.67;;;;;;;;;;5032393;28;20291;-63
2022/09/15 14:43:39;;;;;;;1.47;0.80;;;;;;;;;;5046980;28;20194;-63
2022/09/15 14:46:18;;;;;;;2.20;0.70;;;;;;;;;;5054555;28;20205;-63
2022/09/15 14:48:49;;;;;;;1.37;0.60;;;;;;;;;;5044821;28;20672;-63
2022/09/15 14:51:31;;;;;;;1.40;0.80;;;;;;;;;;5050987;28;20201;-64
2022/09/15 14:54:03;;;;;;;1.27;0.67;;;;;;;;;;5021386;28;20198;-63
2022/09/15 14:56:36;;;;;;;1.03;0.63;;;;;;;;;;5054034;28;20242;-62
2022/09/15 14:59:29;;;;;;;1.13;0.70;;;;;;;;;;5050308;28;20209;-63
2022/09/15 15:02:04;;;;;;;1.37;0.70;;;;;;;;;;5038478;28;20194;-63
2022/09/15 15:04:41;;;;;;;1.50;0.70;;;;;;;;;;5044380;28;20209;-63
2022/09/15 15:07:21;;;;;;;1.50;0.63;;;;;;;;;;5054567;28;20198;-63
2022/09/15 15:10:04;;;;;;;0.80;0.70;;;;;;;;;;5055386;28;20561;-63
2022/09/15 15:12:44;;;;;;;0.97;0.60;;;;;;;;;;5053248;28;20202;-61
2022/09/15 15:15:18;;;;;;;0.60;0.60;;;;;;;;;;5054109;28;20217;-61
2022/09/15 15:17:49;;;;;;;1.93;0.60;;;;;;;;;;5051252;28;20198;-63
2022/09/15 15:20:30;;;;;;;0.90;0.63;;;;;;;;;;5043150;28;20209;-63
2022/09/15 15:23:11;;;;;;;1.67;0.80;;;;;;;;;;5043779;28;20293;-63
2022/09/15 15:25:45;;;;;;;1.13;0.53;;;;;;;;;;5052900;28;20236;-63
2022/09/15 15:28:30;;;;;;;2.13;0.90;;;;;;;;;;5046720;28;20202;-63
2022/09/15 15:31:11;;;;;;;1.37;0.73;;;;;;;;;;5057214;28;20794;-62
2022/09/15 15:33:58;;;;;;;1.63;0.70;;;;;;;;;;5043891;28;20230;-62
2022/09/15 15:36:29;;;;;;;0.93;0.60;;;;;;;;;;5050443;28;20253;-62
2022/09/15 15:38:58;;;;;;;1.23;0.70;;;;;;;;;;5030166;28;20205;-61
2022/09/15 15:41:31;;;;;;;0.93;0.60;;;;;;;;;;5045518;28;20675;-62